createdAt,value
2022-09-07T03:56:30.304Z,19.35
2022-09-07T03:59:33.113Z,19.35
2022-09-07T04:02:35.240Z,18.91
2022-09-07T04:05:37.699Z,18.97
2022-09-07T04:08:40.385Z,19.01
2022-09-07T04:11:42.753Z,18.99
2022-09-07T04:14:44.823Z,18.99
2022-09-07T04:17:47.813Z,19.00
2022-09-07T04:20:50.768Z,19.02
2022-09-07T04:23:53.326Z,19.06
2022-09-07T04:26:55.505Z,19.17
2022-09-07T04:29:57.833Z,19.18
2022-09-07T04:32:59.900Z,19.10
2022-09-07T04:36:02.827Z,19.04
2022-09-07T04:39:05.852Z,19.21
2022-09-07T04:42:08.164Z,19.20
2022-09-07T04:45:10.637Z,19.25
2022-09-07T04:48:12.986Z,19.17
2022-09-07T04:51:16.110Z,19.18
2022-09-07T04:54:18.442Z,19.22
2022-09-07T04:57:25.830Z,19.23
2022-09-07T05:00:28.881Z,19.23
2022-09-07T05:03:32.282Z,19.30
2022-09-07T05:06:34.649Z,19.32
2022-09-07T05:09:36.726Z,19.29
2022-09-07T05:12:39.241Z,19.34
2022-09-07T05:15:41.573Z,19.38
2022-09-07T05:18:44.681Z,19.44
2022-09-07T05:21:46.781Z,19.43
2022-09-07T05:24:49.310Z,19.55
2022-09-07T05:27:51.466Z,19.66
2022-09-07T05:34:31.640Z,19.79
2022-09-07T05:37:34.513Z,19.84
2022-09-07T05:40:40.488Z,19.92
2022-09-07T05:47:06.273Z,19.93
2022-09-07T05:50:09.264Z,19.96
2022-09-07T05:53:11.335Z,19.99
2022-09-07T05:56:13.917Z,20.07
2022-09-07T05:59:16.041Z,20.22
2022-09-07T06:02:18.863Z,20.23
2022-09-07T06:05:21.487Z,20.21
2022-09-07T06:08:23.577Z,20.25
2022-09-07T06:11:27.221Z,20.32
2022-09-07T06:14:29.290Z,20.33
2022-09-07T06:17:31.621Z,20.34
2022-09-07T06:20:33.709Z,20.46
2022-09-07T06:23:37.781Z,20.46
2022-09-07T06:26:39.979Z,20.50
2022-09-07T06:29:42.726Z,20.57
2022-09-07T06:32:45.220Z,20.54
2022-09-07T06:35:58.736Z,20.59
2022-09-07T06:39:03.696Z,20.64
2022-09-07T06:42:06.263Z,20.63
2022-09-07T06:45:13.317Z,20.65
2022-09-07T06:48:15.777Z,20.80
2022-09-07T06:51:20.721Z,20.81
2022-09-07T06:57:45.623Z,20.77
2022-09-07T07:00:48.032Z,20.71
2022-09-07T07:03:53.720Z,20.74
2022-09-07T07:06:55.937Z,20.73
2022-09-07T07:09:57.893Z,20.87
2022-09-07T07:13:00.250Z,20.91
2022-09-07T07:16:05.095Z,20.90
2022-09-07T07:19:07.554Z,20.95
2022-09-07T07:25:34.604Z,20.96
2022-09-07T07:31:59.023Z,21.09
2022-09-07T07:35:01.437Z,21.21
2022-09-07T07:48:17.182Z,21.42
2022-09-07T07:51:20.381Z,21.47
2022-09-07T07:54:22.849Z,21.53
2022-09-07T07:57:25.154Z,21.65
2022-09-07T08:00:37.770Z,21.64
2022-09-07T08:03:49.641Z,21.61
2022-09-07T08:06:52.303Z,21.72
2022-09-07T08:09:54.616Z,21.78
2022-09-07T08:12:57.027Z,21.90
2022-09-07T08:15:59.608Z,21.99
2022-09-07T08:19:01.935Z,22.00
2022-09-07T08:22:04.554Z,22.01
2022-09-07T08:25:07.381Z,22.03
2022-09-07T08:28:09.720Z,22.04
2022-09-07T08:31:14.165Z,22.13
2022-09-07T08:34:16.804Z,22.19
2022-09-07T08:37:18.818Z,22.24
2022-09-07T08:40:21.179Z,22.25
2022-09-07T08:43:49.782Z,22.33
2022-09-07T08:46:58.692Z,22.47
2022-09-07T08:50:09.706Z,22.49
2022-09-07T08:53:17.356Z,22.50
2022-09-07T08:56:33.609Z,22.55
2022-09-07T08:59:51.461Z,22.57
2022-09-07T09:06:31.836Z,22.64
2022-09-07T09:09:54.274Z,22.67
2022-09-07T09:13:18.363Z,22.73
2022-09-07T09:16:24.638Z,22.85
2022-09-07T09:19:58.289Z,22.88
2022-09-07T09:23:12.394Z,23.04
2022-09-07T09:26:24.651Z,23.08
2022-09-07T09:29:26.711Z,23.08
2022-09-07T09:32:52.958Z,23.10
2022-09-07T09:36:00.460Z,23.15
2022-09-07T09:39:32.460Z,23.20
2022-09-07T09:42:35.740Z,23.25
2022-09-07T09:49:22.398Z,23.42
2022-09-07T09:52:28.885Z,23.47
2022-09-07T09:55:36.405Z,23.50
2022-09-07T10:05:54.325Z,23.72
2022-09-07T10:09:01.889Z,23.81
2022-09-07T10:12:06.700Z,23.86
2022-09-07T10:15:26.622Z,23.91
2022-09-07T10:18:35.462Z,23.87
2022-09-07T10:21:37.533Z,23.95
2022-09-07T10:24:40.522Z,23.97
2022-09-07T10:27:45.869Z,24.01
2022-09-07T10:31:18.673Z,24.06
2022-09-07T10:34:33.715Z,24.11
2022-09-07T10:37:42.385Z,24.19
2022-09-07T10:40:53.144Z,24.18
2022-09-07T10:43:56.864Z,24.24
2022-09-07T10:47:26.089Z,24.33
2022-09-07T10:50:39.516Z,24.22
2022-09-07T10:54:34.833Z,24.30
2022-09-07T10:57:40.369Z,24.32
2022-09-07T11:01:07.165Z,24.44
2022-09-07T11:04:29.044Z,24.48
2022-09-07T11:08:01.883Z,24.52
2022-09-07T11:11:11.421Z,24.58
2022-09-07T11:14:21.633Z,24.59
2022-09-07T11:17:28.369Z,24.66
2022-09-07T11:20:37.433Z,24.64
2022-09-07T11:23:44.550Z,24.58
2022-09-07T11:26:57.720Z,24.66
2022-09-07T11:30:12.547Z,24.75
2022-09-07T11:33:26.720Z,24.74
2022-09-07T11:36:36.525Z,24.71
2022-09-07T11:39:48.175Z,24.87
2022-09-07T11:43:14.797Z,24.89
2022-09-07T11:46:26.809Z,24.91
2022-09-07T11:49:31.144Z,24.90
2022-09-07T11:52:43.077Z,25.00
2022-09-07T11:55:49.897Z,25.01
2022-09-07T11:59:00.734Z,24.98
2022-09-07T12:02:57.651Z,25.04
2022-09-07T12:06:11.439Z,25.09
2022-09-07T12:09:53.405Z,25.07
2022-09-07T12:13:23.392Z,25.13
2022-09-07T12:16:36.108Z,25.19
2022-09-07T12:19:39.022Z,25.11
2022-09-07T12:23:07.334Z,25.18
2022-09-07T12:26:34.705Z,25.17
2022-09-07T12:29:37.193Z,25.09
2022-09-07T12:32:56.822Z,25.10
2022-09-07T12:36:02.163Z,25.10
2022-09-07T12:39:19.522Z,25.12
2022-09-07T12:42:36.954Z,25.07
2022-09-07T12:45:39.823Z,25.11
2022-09-07T12:48:48.677Z,25.21
2022-09-07T12:52:15.765Z,25.18
2022-09-07T12:55:28.314Z,25.20
2022-09-07T12:58:37.534Z,25.13
2022-09-07T13:02:00.439Z,25.12
2022-09-07T13:05:44.526Z,25.16
2022-09-07T13:09:08.310Z,25.19
2022-09-07T13:16:05.085Z,25.22
2022-09-07T13:19:14.429Z,25.21
2022-09-07T13:22:35.415Z,25.26
2022-09-07T13:25:37.725Z,25.27
2022-09-07T13:28:56.310Z,25.31
2022-09-07T13:32:15.826Z,25.31
2022-09-07T13:35:24.338Z,25.42
2022-09-07T13:38:29.510Z,25.41
2022-09-07T13:41:41.101Z,25.52
2022-09-07T13:44:53.040Z,25.59
2022-09-07T13:48:12.656Z,25.54
2022-09-07T13:51:39.576Z,25.50
2022-09-07T13:55:20.740Z,25.52
2022-09-07T13:58:34.796Z,25.58
2022-09-07T14:01:45.015Z,25.47
2022-09-07T14:04:51.399Z,25.45
2022-09-07T14:07:53.456Z,25.49
2022-09-07T14:10:55.869Z,25.52
2022-09-07T14:14:16.417Z,25.54
2022-09-07T14:17:19.407Z,25.49
2022-09-07T14:20:23.259Z,25.50
2022-09-07T14:23:34.865Z,25.44
2022-09-07T14:26:45.762Z,25.53
2022-09-07T14:29:48.273Z,25.48
2022-09-07T14:32:53.914Z,25.52
2022-09-07T14:35:57.873Z,25.50
2022-09-07T14:39:05.714Z,25.50
2022-09-07T14:42:11.872Z,25.45
2022-09-07T14:45:22.921Z,25.48
2022-09-07T14:48:32.434Z,25.48
2022-09-07T14:51:37.256Z,25.41
